Terminal Aerodrome Forecast
Issued by NWS Sterling, VA

Current Version | Previous Version | Text Only | Print | Product List | Glossary Off
Versions: 1 2 3 4 5 6 7 8 9 10 11 12 13 14

000
FTUS41 KLWX 271700
TAFMRB
TAF
KMRB 271720Z 2718/2818 32006KT P6SM BKN050
     FM280300 30010G18KT P6SM BKN050=

USA.gov is the U.S. government's official web portal to all federal, state and local government web resources and services.